createdAt,value
2023-01-30T00:00:38.706Z,20
2023-01-30T00:01:38.680Z,20
2023-01-30T00:02:38.679Z,20
2023-01-30T00:03:38.667Z,20
2023-01-30T00:04:38.657Z,20
2023-01-30T00:05:38.634Z,20
2023-01-30T00:06:38.630Z,20
2023-01-30T00:07:38.616Z,20
2023-01-30T00:08:38.606Z,20
2023-01-30T00:09:38.598Z,20
2023-01-30T00:10:38.592Z,20
2023-01-30T00:11:38.579Z,20
2023-01-30T00:12:38.558Z,20
2023-01-30T00:13:38.551Z,20
2023-01-30T00:14:38.544Z,20
2023-01-30T00:15:38.539Z,20
2023-01-30T00:16:38.517Z,20
2023-01-30T00:17:38.512Z,20
2023-01-30T00:18:38.504Z,20
2023-01-30T00:19:38.487Z,20
2023-01-30T00:20:38.480Z,20
2023-01-30T00:21:38.474Z,20
2023-01-30T00:22:38.459Z,20
2023-01-30T00:23:38.450Z,20
2023-01-30T00:24:38.446Z,20
2023-01-30T00:25:38.442Z,20
2023-01-30T00:26:38.414Z,20
2023-01-30T00:27:38.401Z,20
2023-01-30T00:28:38.396Z,20
2023-01-30T00:29:38.390Z,20
2023-01-30T00:30:38.370Z,20
2023-01-30T00:31:38.366Z,20
2023-01-30T00:32:38.349Z,20
2023-01-30T00:33:38.364Z,20
2023-01-30T00:34:38.331Z,20
2023-01-30T00:35:38.333Z,20
2023-01-30T00:36:38.311Z,20
2023-01-30T00:37:38.298Z,20
2023-01-30T00:38:38.291Z,20
2023-01-30T00:39:38.280Z,20
2023-01-30T00:40:38.263Z,20
2023-01-30T00:41:38.253Z,20
2023-01-30T00:42:38.242Z,20
2023-01-30T00:43:38.242Z,20
2023-01-30T00:44:38.225Z,20
2023-01-30T00:45:38.212Z,20
2023-01-30T00:46:38.204Z,20
2023-01-30T00:47:38.198Z,20
2023-01-30T00:48:38.180Z,20
2023-01-30T00:49:38.174Z,20
2023-01-30T00:50:38.159Z,20
2023-01-30T00:51:38.153Z,20
2023-01-30T00:52:38.142Z,20
2023-01-30T00:53:38.128Z,20
2023-01-30T00:54:38.116Z,20
2023-01-30T00:55:38.119Z,20
2023-01-30T00:56:38.094Z,20
2023-01-30T00:57:38.095Z,20
2023-01-30T00:58:38.078Z,20
2023-01-30T00:59:38.067Z,20
2023-01-30T01:00:38.058Z,20
2023-01-30T01:01:38.049Z,20
2023-01-30T01:02:38.033Z,20
2023-01-30T01:03:38.033Z,20
2023-01-30T01:04:38.013Z,20
2023-01-30T01:05:38.001Z,20
2023-01-30T01:06:38.005Z,20
2023-01-30T01:07:37.990Z,20
2023-01-30T01:08:38.010Z,20
2023-01-30T01:09:37.983Z,20
2023-01-30T01:10:37.959Z,20
2023-01-30T01:11:37.997Z,20
2023-01-30T01:12:37.939Z,20
2023-01-30T01:13:37.919Z,20
2023-01-30T01:14:37.938Z,20
2023-01-30T01:15:37.915Z,20
2023-01-30T01:16:37.886Z,20
2023-01-30T01:17:37.877Z,20
2023-01-30T01:18:37.876Z,20
2023-01-30T01:19:37.855Z,20
2023-01-30T01:20:37.851Z,20
2023-01-30T01:21:37.839Z,20
2023-01-30T01:22:37.834Z,20
2023-01-30T01:23:37.814Z,16
2023-01-30T01:24:37.802Z,16
2023-01-30T01:25:37.792Z,16
2023-01-30T01:26:37.786Z,16
2023-01-30T01:27:37.771Z,16
2023-01-30T01:28:37.762Z,16
2023-01-30T01:29:37.761Z,16
2023-01-30T01:30:37.740Z,16
2023-01-30T01:31:37.735Z,16
2023-01-30T01:32:37.722Z,16
2023-01-30T01:33:37.704Z,16
2023-01-30T01:34:37.692Z,16
2023-01-30T01:35:37.705Z,16
2023-01-30T01:36:37.672Z,16
2023-01-30T01:37:37.663Z,16
2023-01-30T01:38:37.656Z,16
2023-01-30T01:39:37.644Z,16
2023-01-30T01:40:37.660Z,16
2023-01-30T01:41:37.639Z,16
2023-01-30T01:42:37.610Z,16
2023-01-30T01:43:37.610Z,16
2023-01-30T01:44:37.589Z,16
2023-01-30T01:45:37.575Z,16
2023-01-30T01:46:37.577Z,16
2023-01-30T01:47:37.564Z,16
2023-01-30T01:48:37.551Z,16
2023-01-30T01:49:37.540Z,16
2023-01-30T01:50:37.534Z,16
2023-01-30T01:51:37.560Z,16
2023-01-30T01:52:37.528Z,16
2023-01-30T01:53:37.502Z,16
2023-01-30T01:54:37.521Z,16
2023-01-30T01:55:37.480Z,16
2023-01-30T01:56:37.495Z,16
2023-01-30T01:57:37.453Z,16
2023-01-30T01:58:37.439Z,16
2023-01-30T01:59:37.430Z,16
2023-01-30T02:00:37.434Z,16
2023-01-30T02:01:37.411Z,16
2023-01-30T02:02:37.407Z,16
2023-01-30T02:03:37.410Z,16
2023-01-30T02:04:37.483Z,16
2023-01-30T02:05:37.381Z,16
2023-01-30T02:06:37.377Z,16
2023-01-30T02:07:37.345Z,16
2023-01-30T02:08:37.340Z,16
2023-01-30T02:09:37.331Z,16
2023-01-30T02:10:37.313Z,16
2023-01-30T02:11:37.324Z,16
2023-01-30T02:12:37.296Z,16
2023-01-30T02:13:37.304Z,16
2023-01-30T02:14:37.279Z,16
2023-01-30T02:15:37.261Z,16
2023-01-30T02:16:37.265Z,16
2023-01-30T02:17:37.250Z,16
2023-01-30T02:18:37.239Z,16
2023-01-30T02:19:37.218Z,16
2023-01-30T02:20:37.209Z,16
2023-01-30T02:21:37.200Z,16
2023-01-30T02:22:37.189Z,16
2023-01-30T02:23:37.180Z,16
2023-01-30T02:24:37.181Z,16
2023-01-30T02:25:37.165Z,16
2023-01-30T02:26:37.177Z,16
2023-01-30T02:27:37.136Z,16
2023-01-30T02:28:37.124Z,16
2023-01-30T02:29:37.115Z,16
2023-01-30T02:30:37.106Z,16
2023-01-30T02:31:37.094Z,16
2023-01-30T02:32:37.084Z,16
2023-01-30T02:33:37.097Z,16
2023-01-30T02:34:37.062Z,16
2023-01-30T02:35:37.054Z,16
2023-01-30T02:36:37.044Z,16
2023-01-30T02:37:37.031Z,16
2023-01-30T02:38:37.021Z,16
2023-01-30T02:39:37.009Z,16
2023-01-30T02:40:37.001Z,16
2023-01-30T02:41:36.990Z,16
2023-01-30T02:42:36.989Z,16
2023-01-30T02:43:36.973Z,16
2023-01-30T02:44:36.978Z,16
2023-01-30T02:45:36.951Z,16
2023-01-30T02:46:36.937Z,16
2023-01-30T02:47:36.930Z,16
2023-01-30T02:48:36.924Z,16
2023-01-30T02:49:36.912Z,16
2023-01-30T02:50:36.903Z,16
2023-01-30T02:51:36.913Z,16
2023-01-30T02:52:36.885Z,16
2023-01-30T02:53:36.874Z,16
2023-01-30T02:54:36.857Z,16
2023-01-30T02:55:36.856Z,16
2023-01-30T02:56:36.833Z,16
2023-01-30T02:57:36.826Z,16
2023-01-30T02:58:36.818Z,16
2023-01-30T02:59:36.809Z,16
2023-01-30T03:00:36.798Z,16
2023-01-30T03:01:36.783Z,16
2023-01-30T03:02:36.773Z,16
2023-01-30T03:03:36.761Z,16
2023-01-30T03:04:36.763Z,16
2023-01-30T03:05:36.748Z,16
2023-01-30T03:06:36.728Z,16
2023-01-30T03:07:36.730Z,16
2023-01-30T03:08:36.744Z,16
2023-01-30T03:09:36.708Z,16
2023-01-30T03:10:36.700Z,16
2023-01-30T03:11:36.699Z,16
2023-01-30T03:12:36.671Z,16
2023-01-30T03:13:36.665Z,16
2023-01-30T03:14:36.662Z,16
2023-01-30T03:15:36.640Z,16
2023-01-30T03:16:36.638Z,16
2023-01-30T03:17:36.616Z,16
2023-01-30T03:18:36.616Z,16
2023-01-30T03:19:36.602Z,16
2023-01-30T03:20:36.588Z,16
2023-01-30T03:21:36.584Z,16
2023-01-30T03:22:36.573Z,16
2023-01-30T03:23:36.555Z,16
2023-01-30T03:24:36.540Z,16
2023-01-30T03:25:36.539Z,16
2023-01-30T03:26:36.555Z,16
2023-01-30T03:27:36.525Z,16
2023-01-30T03:28:36.502Z,16
2023-01-30T03:29:36.492Z,16
2023-01-30T03:30:36.483Z,16
2023-01-30T03:31:36.474Z,16
2023-01-30T03:32:36.463Z,16
2023-01-30T03:33:36.460Z,16
2023-01-30T03:34:36.437Z,16
2023-01-30T03:35:36.434Z,16
2023-01-30T03:36:36.423Z,16
2023-01-30T03:37:36.410Z,16
2023-01-30T03:38:36.403Z,16
2023-01-30T03:39:36.405Z,16
2023-01-30T03:40:36.383Z,16
2023-01-30T03:41:36.369Z,16
2023-01-30T03:42:36.361Z,16
2023-01-30T03:43:36.368Z,16
2023-01-30T03:44:36.336Z,16
2023-01-30T03:45:36.334Z,16
2023-01-30T03:46:36.317Z,16
2023-01-30T03:47:36.309Z,16
2023-01-30T03:48:36.292Z,16
2023-01-30T03:49:36.291Z,16
2023-01-30T03:50:36.275Z,16
2023-01-30T03:51:36.274Z,16
2023-01-30T03:52:36.252Z,16
2023-01-30T03:53:36.247Z,16
2023-01-30T03:54:36.234Z,16
2023-01-30T03:55:36.225Z,16
2023-01-30T03:56:36.220Z,16
2023-01-30T03:57:36.206Z,16
2023-01-30T03:58:36.194Z,16
2023-01-30T03:59:36.201Z,16
2023-01-30T04:00:36.182Z,24
2023-01-30T04:01:36.185Z,24
2023-01-30T04:02:36.157Z,24
2023-01-30T04:03:36.138Z,24
2023-01-30T04:04:36.132Z,24
2023-01-30T04:05:36.140Z,24
2023-01-30T04:06:36.112Z,24
2023-01-30T04:07:36.144Z,24
2023-01-30T04:08:36.107Z,24
2023-01-30T04:09:36.159Z,24
2023-01-30T04:10:36.081Z,24
2023-01-30T04:11:36.151Z,24
2023-01-30T04:12:36.068Z,24
2023-01-30T04:13:36.066Z,24
2023-01-30T04:14:36.044Z,24
2023-01-30T04:15:36.063Z,24
2023-01-30T04:16:36.010Z,24
2023-01-30T04:17:36.000Z,24
2023-01-30T04:18:35.994Z,24
2023-01-30T04:19:35.998Z,24
2023-01-30T04:20:36.974Z,24
2023-01-30T04:21:35.949Z,24
2023-01-30T04:22:35.952Z,24
2023-01-30T04:23:35.959Z,24
2023-01-30T04:24:35.923Z,24
2023-01-30T04:25:35.915Z,24
2023-01-30T04:26:35.901Z,24
2023-01-30T04:27:35.888Z,24
2023-01-30T04:28:35.883Z,24
2023-01-30T04:29:35.887Z,24
2023-01-30T04:30:35.858Z,24
2023-01-30T04:31:35.846Z,20
2023-01-30T04:32:35.847Z,20
2023-01-30T04:33:35.831Z,24
2023-01-30T04:34:35.818Z,20
2023-01-30T04:35:35.826Z,20
2023-01-30T04:36:35.792Z,20
2023-01-30T04:37:35.798Z,20
2023-01-30T04:38:35.798Z,24
2023-01-30T04:39:35.795Z,24
2023-01-30T04:40:35.784Z,24
2023-01-30T04:41:35.740Z,24
2023-01-30T04:42:35.734Z,28
2023-01-30T04:43:35.721Z,28
2023-01-30T04:44:35.718Z,28
2023-01-30T04:45:35.715Z,24
2023-01-30T04:46:35.687Z,24
2023-01-30T04:47:35.686Z,24
2023-01-30T04:48:35.673Z,20
2023-01-30T04:49:35.687Z,24
2023-01-30T04:50:35.643Z,24
2023-01-30T04:51:35.639Z,20
2023-01-30T04:52:35.656Z,24
2023-01-30T04:53:35.628Z,24
2023-01-30T04:54:35.596Z,24
2023-01-30T04:55:35.592Z,24
2023-01-30T04:56:35.582Z,24
2023-01-30T04:57:35.588Z,24
2023-01-30T04:58:35.585Z,24
2023-01-30T04:59:35.551Z,24
2023-01-30T05:00:35.538Z,24
2023-01-30T05:01:35.527Z,24
2023-01-30T05:02:35.526Z,24
2023-01-30T05:03:35.519Z,24
2023-01-30T05:04:35.507Z,24
2023-01-30T05:05:35.493Z,24
2023-01-30T05:06:35.482Z,24
2023-01-30T05:07:35.467Z,24
2023-01-30T05:08:35.460Z,24
2023-01-30T05:09:35.446Z,24
2023-01-30T05:10:35.450Z,24
2023-01-30T05:11:35.425Z,24
2023-01-30T05:12:35.413Z,20
2023-01-30T05:13:35.406Z,28
2023-01-30T05:14:35.391Z,24
2023-01-30T05:15:35.379Z,24
2023-01-30T05:16:44.031Z,20
2023-01-30T05:17:35.357Z,20
2023-01-30T05:18:35.356Z,16
2023-01-30T05:19:35.362Z,24
2023-01-30T05:20:35.362Z,24
2023-01-30T05:21:35.323Z,24
2023-01-30T05:22:35.303Z,32
2023-01-30T05:23:35.302Z,24
2023-01-30T05:24:35.296Z,24
2023-01-30T05:25:35.315Z,20
2023-01-30T05:26:35.306Z,24
2023-01-30T05:27:35.253Z,24
2023-01-30T05:28:35.252Z,24
2023-01-30T05:29:35.233Z,24
2023-01-30T05:30:35.240Z,24
2023-01-30T05:31:35.215Z,24
2023-01-30T05:32:35.197Z,24
2023-01-30T05:33:35.219Z,24
2023-01-30T05:34:35.181Z,24
2023-01-30T05:35:35.173Z,24
2023-01-30T05:36:35.163Z,24
2023-01-30T05:37:35.149Z,24
2023-01-30T05:38:35.136Z,20
2023-01-30T05:39:35.135Z,20
2023-01-30T05:40:35.128Z,20
2023-01-30T05:41:35.121Z,20
2023-01-30T05:42:35.099Z,24
2023-01-30T05:43:35.082Z,24
2023-01-30T05:44:35.073Z,20
2023-01-30T05:45:35.076Z,24
2023-01-30T05:46:35.057Z,24
2023-01-30T05:47:35.051Z,24
2023-01-30T05:48:35.045Z,24
2023-01-30T05:49:35.015Z,24
2023-01-30T05:50:35.006Z,24
2023-01-30T05:51:35.026Z,24
2023-01-30T05:52:35.001Z,24
2023-01-30T05:53:34.971Z,24
2023-01-30T05:54:34.963Z,20
2023-01-30T05:55:34.961Z,24
2023-01-30T05:56:34.952Z,20
2023-01-30T05:57:34.934Z,20
2023-01-30T05:58:34.920Z,24
2023-01-30T05:59:34.918Z,24
2023-01-30T06:00:34.898Z,24
2023-01-30T06:01:34.899Z,24
2023-01-30T06:02:34.885Z,24
2023-01-30T06:03:34.873Z,24
2023-01-30T06:04:34.853Z,24
2023-01-30T06:05:34.860Z,24
2023-01-30T06:06:34.838Z,24
2023-01-30T06:07:34.826Z,24
2023-01-30T06:08:34.822Z,24
2023-01-30T06:09:34.811Z,20
2023-01-30T06:10:34.792Z,20
2023-01-30T06:11:34.775Z,32
2023-01-30T06:12:34.777Z,20
2023-01-30T06:13:34.784Z,24
2023-01-30T06:14:34.750Z,24
2023-01-30T06:15:34.738Z,24
2023-01-30T06:16:34.737Z,24
2023-01-30T06:17:34.721Z,24
2023-01-30T06:18:34.709Z,24
2023-01-30T06:19:34.703Z,24
2023-01-30T06:20:34.689Z,24
2023-01-30T06:21:34.674Z,24
2023-01-30T06:22:34.681Z,24
2023-01-30T06:23:34.662Z,24
2023-01-30T06:24:34.660Z,24
2023-01-30T06:25:34.624Z,24
2023-01-30T06:26:34.624Z,24
2023-01-30T06:27:34.621Z,24
2023-01-30T06:28:34.596Z,24
2023-01-30T06:29:34.622Z,24
2023-01-30T06:30:34.580Z,24
2023-01-30T06:31:34.575Z,24
2023-01-30T06:32:34.554Z,24
2023-01-30T06:33:34.550Z,24
2023-01-30T06:34:34.533Z,24
2023-01-30T06:35:34.538Z,24
2023-01-30T06:36:34.522Z,20
2023-01-30T06:37:34.492Z,20
2023-01-30T06:38:34.490Z,24
2023-01-30T06:39:34.531Z,20
2023-01-30T06:40:34.461Z,20
2023-01-30T06:41:34.454Z,20
2023-01-30T06:42:34.443Z,24
2023-01-30T06:43:34.425Z,24
2023-01-30T06:44:34.428Z,24
2023-01-30T06:45:34.412Z,24
2023-01-30T06:46:34.405Z,24
2023-01-30T06:47:34.390Z,24
2023-01-30T06:48:34.389Z,28
2023-01-30T06:49:34.368Z,28
2023-01-30T06:50:35.122Z,32
2023-01-30T06:51:34.348Z,24
2023-01-30T06:52:34.367Z,24
2023-01-30T06:53:34.386Z,28
2023-01-30T06:54:34.385Z,32
2023-01-30T06:55:34.337Z,32
2023-01-30T06:56:34.322Z,40
2023-01-30T06:57:34.294Z,40
2023-01-30T06:58:34.270Z,40
2023-01-30T06:59:34.259Z,36
2023-01-30T07:00:34.245Z,40
2023-01-30T07:01:34.236Z,40
2023-01-30T07:02:34.219Z,36
2023-01-30T07:03:34.222Z,32
2023-01-30T07:04:34.207Z,20
2023-01-30T07:05:34.190Z,20
2023-01-30T07:06:34.185Z,20
2023-01-30T07:07:34.164Z,24
2023-01-30T07:08:34.168Z,24
2023-01-30T07:09:34.159Z,28
2023-01-30T07:10:34.140Z,32
2023-01-30T07:11:34.260Z,28
2023-01-30T07:12:34.114Z,24
2023-01-30T07:13:34.102Z,24
2023-01-30T07:14:34.091Z,28
2023-01-30T07:15:34.087Z,32
2023-01-30T07:16:34.095Z,40
2023-01-30T07:17:34.108Z,52
2023-01-30T07:18:34.058Z,72
2023-01-30T07:19:34.037Z,84
2023-01-30T07:20:34.032Z,100
2023-01-30T07:21:34.016Z,108
2023-01-30T07:22:34.015Z,116
2023-01-30T07:23:34.000Z,120
2023-01-30T07:24:34.005Z,132
2023-01-30T07:25:33.997Z,152
2023-01-30T07:26:33.969Z,156
2023-01-30T07:27:33.956Z,160
2023-01-30T07:28:33.941Z,152
2023-01-30T07:29:33.933Z,136
2023-01-30T07:30:33.967Z,128
2023-01-30T07:31:33.954Z,124
2023-01-30T07:32:33.918Z,120
2023-01-30T07:33:33.912Z,148
2023-01-30T07:34:33.882Z,216
2023-01-30T07:35:33.891Z,268
2023-01-30T07:36:33.853Z,328
2023-01-30T07:37:33.839Z,388
2023-01-30T07:38:33.839Z,444
2023-01-30T07:39:33.824Z,448
2023-01-30T07:40:33.808Z,504
2023-01-30T07:41:33.811Z,616
2023-01-30T07:42:33.796Z,740
2023-01-30T07:43:33.783Z,772
2023-01-30T07:44:33.829Z,636
2023-01-30T07:45:33.759Z,536
2023-01-30T07:46:33.756Z,484
2023-01-30T07:47:33.739Z,492
2023-01-30T07:48:33.730Z,512
2023-01-30T07:49:33.737Z,604
2023-01-30T07:50:33.711Z,676
2023-01-30T07:51:33.693Z,708
2023-01-30T07:52:33.693Z,724
2023-01-30T07:53:33.679Z,764
2023-01-30T07:54:33.658Z,780
2023-01-30T07:55:33.655Z,824
2023-01-30T07:56:33.637Z,872
2023-01-30T07:57:33.632Z,868
2023-01-30T07:58:33.622Z,888
2023-01-30T07:59:33.600Z,932
2023-01-30T08:00:33.616Z,836
2023-01-30T08:01:33.627Z,916
2023-01-30T08:02:33.585Z,876
2023-01-30T08:03:33.601Z,956
2023-01-30T08:04:33.610Z,948
2023-01-30T08:05:33.576Z,1160
2023-01-30T08:06:33.629Z,2048
2023-01-30T08:07:33.546Z,2000
2023-01-30T08:08:33.514Z,1544
2023-01-30T08:09:33.515Z,1296
2023-01-30T08:10:33.484Z,1588
2023-01-30T08:11:33.483Z,1164
2023-01-30T08:12:33.582Z,1264
2023-01-30T08:13:33.452Z,1456
2023-01-30T08:14:33.451Z,1620
2023-01-30T08:15:33.431Z,1448
2023-01-30T08:16:33.422Z,1552
2023-01-30T08:17:33.418Z,1616
2023-01-30T08:18:33.409Z,1768
2023-01-30T08:19:33.409Z,1704
2023-01-30T08:20:33.376Z,1792
2023-01-30T08:21:33.377Z,2076
2023-01-30T08:22:33.364Z,2296
2023-01-30T08:23:33.376Z,2292
2023-01-30T08:24:33.349Z,2884
2023-01-30T08:25:33.327Z,3144
2023-01-30T08:26:33.318Z,2980
2023-01-30T08:27:33.309Z,2416
2023-01-30T08:28:33.319Z,1664
2023-01-30T08:29:33.289Z,1372
2023-01-30T08:30:34.061Z,1256
2023-01-30T08:31:33.274Z,1380
2023-01-30T08:32:33.248Z,1372
2023-01-30T08:33:33.249Z,1212
2023-01-30T08:34:33.232Z,1368
2023-01-30T08:35:33.237Z,1256
2023-01-30T08:36:33.268Z,1076
2023-01-30T08:37:33.270Z,1136
2023-01-30T08:38:33.268Z,1336
2023-01-30T08:39:33.203Z,1560
2023-01-30T08:40:33.173Z,1556
2023-01-30T08:41:33.259Z,1808
2023-01-30T08:42:34.177Z,1816
2023-01-30T08:43:33.183Z,1904
2023-01-30T08:44:33.156Z,1672
2023-01-30T08:45:33.141Z,1796
2023-01-30T08:46:33.179Z,1852
2023-01-30T08:47:33.103Z,1648
2023-01-30T08:48:33.103Z,1756
2023-01-30T08:49:33.099Z,1448
2023-01-30T08:50:33.080Z,1472
2023-01-30T08:51:33.069Z,1776
2023-01-30T08:52:33.159Z,1544
2023-01-30T08:53:33.055Z,1416
2023-01-30T08:54:33.023Z,1872
2023-01-30T08:55:33.013Z,1348
2023-01-30T08:56:32.998Z,1524
2023-01-30T08:57:32.989Z,1756
2023-01-30T08:58:32.994Z,1888
2023-01-30T08:59:32.994Z,1632
2023-01-30T09:00:33.179Z,1960
2023-01-30T09:01:33.031Z,2632
2023-01-30T09:02:34.087Z,3068
2023-01-30T09:03:32.957Z,2340
2023-01-30T09:04:32.945Z,2148
2023-01-30T09:05:32.909Z,1948
2023-01-30T09:06:32.992Z,1532
2023-01-30T09:07:33.100Z,1300
2023-01-30T09:08:32.958Z,1176
2023-01-30T09:09:33.910Z,988
2023-01-30T09:10:32.869Z,1224
2023-01-30T09:11:33.867Z,1312
2023-01-30T09:12:32.923Z,1616
2023-01-30T09:13:33.830Z,1524
2023-01-30T09:14:32.826Z,1240
2023-01-30T09:15:32.830Z,1136
2023-01-30T09:16:32.806Z,1288
2023-01-30T09:17:32.828Z,1628
2023-01-30T09:18:32.805Z,1316
2023-01-30T09:19:33.127Z,1152
2023-01-30T09:20:32.796Z,1128
2023-01-30T09:21:32.754Z,1036
2023-01-30T09:22:32.723Z,1096
2023-01-30T09:23:32.713Z,1048
2023-01-30T09:24:32.711Z,1020
2023-01-30T09:25:32.708Z,1072
2023-01-30T09:26:32.686Z,1472
2023-01-30T09:27:32.757Z,1848
2023-01-30T09:28:32.656Z,1468
2023-01-30T09:29:32.651Z,1316
2023-01-30T09:30:32.641Z,1356
2023-01-30T09:31:32.623Z,1428
2023-01-30T09:32:32.617Z,1304
2023-01-30T09:33:32.603Z,1180
2023-01-30T09:34:32.618Z,1256
2023-01-30T09:35:32.605Z,1452
2023-01-30T09:36:32.590Z,1776
2023-01-30T09:37:32.562Z,1788
2023-01-30T09:38:32.552Z,1652
2023-01-30T09:39:32.539Z,1560
2023-01-30T09:40:32.539Z,1492
2023-01-30T09:41:32.517Z,1656
2023-01-30T09:42:32.509Z,1952
2023-01-30T09:43:32.508Z,2196
2023-01-30T09:44:32.532Z,1900
2023-01-30T09:45:32.493Z,2100
2023-01-30T09:46:32.475Z,2228
2023-01-30T09:47:32.461Z,2076
2023-01-30T09:48:32.450Z,1964
2023-01-30T09:49:32.434Z,1816
2023-01-30T09:50:32.436Z,1748
2023-01-30T09:51:32.414Z,1628
2023-01-30T09:52:32.441Z,1516
2023-01-30T09:53:32.395Z,1580
2023-01-30T09:54:32.393Z,1640
2023-01-30T09:55:32.374Z,1988
2023-01-30T09:56:32.365Z,1792
2023-01-30T09:57:32.363Z,1788
2023-01-30T09:58:32.352Z,2300
2023-01-30T09:59:32.338Z,2524
2023-01-30T10:00:32.319Z,2072
2023-01-30T10:01:32.311Z,1700
2023-01-30T10:02:32.305Z,2116
2023-01-30T10:03:32.289Z,1688
2023-01-30T10:04:32.285Z,1568
2023-01-30T10:05:32.323Z,1944
2023-01-30T10:06:32.267Z,2132
2023-01-30T10:07:32.247Z,2044
2023-01-30T10:08:32.262Z,1896
2023-01-30T10:09:32.268Z,1948
2023-01-30T10:10:32.238Z,1764
2023-01-30T10:11:32.212Z,2076
2023-01-30T10:12:32.194Z,2112
2023-01-30T10:13:32.194Z,1928
2023-01-30T10:14:32.191Z,1612
2023-01-30T10:15:32.162Z,1808
2023-01-30T10:16:32.163Z,2348
2023-01-30T10:17:32.142Z,2660
2023-01-30T10:18:32.158Z,2808
2023-01-30T10:19:32.172Z,2392
2023-01-30T10:20:32.112Z,2968
2023-01-30T10:21:32.136Z,3688
2023-01-30T10:22:32.094Z,3300
2023-01-30T10:23:32.080Z,3036
2023-01-30T10:24:32.079Z,2996
2023-01-30T10:25:32.076Z,3028
2023-01-30T10:26:32.059Z,3340
2023-01-30T10:27:32.044Z,4048
2023-01-30T10:28:32.133Z,4028
2023-01-30T10:29:32.027Z,4620
2023-01-30T10:30:32.014Z,6108
2023-01-30T10:31:32.004Z,4260
2023-01-30T10:32:31.994Z,3556
2023-01-30T10:33:31.993Z,3376
2023-01-30T10:34:31.966Z,3692
2023-01-30T10:35:31.953Z,2936
2023-01-30T10:36:31.943Z,2492
2023-01-30T10:37:31.953Z,2408
2023-01-30T10:38:31.927Z,3192
2023-01-30T10:39:31.915Z,3464
2023-01-30T10:40:31.900Z,4204
2023-01-30T10:41:31.888Z,5088
2023-01-30T10:42:31.877Z,5428
2023-01-30T10:43:31.882Z,3924
2023-01-30T10:44:31.856Z,3152
2023-01-30T10:45:31.854Z,2744
2023-01-30T10:46:31.845Z,2640
2023-01-30T10:47:31.832Z,3076
2023-01-30T10:48:31.819Z,3128
2023-01-30T10:49:31.814Z,3164
2023-01-30T10:50:31.835Z,3236
2023-01-30T10:51:31.787Z,3604
2023-01-30T10:52:31.772Z,3888
2023-01-30T10:53:31.799Z,2948
2023-01-30T10:54:31.755Z,2480
2023-01-30T10:55:31.743Z,2464
2023-01-30T10:56:31.739Z,2424
2023-01-30T10:57:31.720Z,1576
2023-01-30T10:58:31.709Z,988
2023-01-30T10:59:31.704Z,980
2023-01-30T11:00:31.692Z,1136
2023-01-30T11:01:31.676Z,1092
2023-01-30T11:02:31.663Z,1540
2023-01-30T11:03:31.659Z,2116
2023-01-30T11:04:31.654Z,2412
2023-01-30T11:05:31.638Z,1880
2023-01-30T11:06:31.624Z,1792
2023-01-30T11:07:31.614Z,1628
2023-01-30T11:08:31.603Z,1320
2023-01-30T11:09:31.590Z,884
2023-01-30T11:10:31.598Z,772
2023-01-30T11:11:31.574Z,780
2023-01-30T11:12:31.562Z,748
2023-01-30T11:13:31.553Z,828
2023-01-30T11:14:31.540Z,900
2023-01-30T11:15:31.531Z,884
2023-01-30T11:16:31.520Z,948
2023-01-30T11:17:31.511Z,1244
2023-01-30T11:18:31.510Z,1628
2023-01-30T11:19:31.487Z,2076
2023-01-30T11:20:31.473Z,2368
2023-01-30T11:21:31.467Z,2964
2023-01-30T11:22:31.453Z,3248
2023-01-30T11:23:31.450Z,2788
2023-01-30T11:24:31.463Z,3872
2023-01-30T11:25:31.422Z,3576
2023-01-30T11:26:31.485Z,3548
2023-01-30T11:27:31.434Z,4420
2023-01-30T11:28:31.395Z,5552
2023-01-30T11:29:32.047Z,6272
2023-01-30T11:30:31.379Z,6812
2023-01-30T11:31:31.359Z,8964
2023-01-30T11:32:31.349Z,7068
2023-01-30T11:33:31.347Z,4392
2023-01-30T11:34:31.333Z,3632
2023-01-30T11:35:31.319Z,3060
2023-01-30T11:36:31.304Z,2628
2023-01-30T11:37:31.295Z,3092
2023-01-30T11:38:31.281Z,3552
2023-01-30T11:39:31.274Z,4540
2023-01-30T11:40:31.292Z,4516
2023-01-30T11:41:31.249Z,5552
2023-01-30T11:42:31.260Z,8004
2023-01-30T11:43:31.249Z,4836
2023-01-30T11:44:31.238Z,3876
2023-01-30T11:45:31.223Z,3976
2023-01-30T11:46:31.206Z,4424
2023-01-30T11:47:31.191Z,3456
2023-01-30T11:48:31.182Z,3048
2023-01-30T11:49:31.173Z,2752
2023-01-30T11:50:31.167Z,2284
2023-01-30T11:51:31.148Z,1936
2023-01-30T11:52:31.169Z,1920
2023-01-30T11:53:31.126Z,1796
2023-01-30T11:54:31.119Z,2072
2023-01-30T11:55:31.114Z,1704
2023-01-30T11:56:31.101Z,1592
2023-01-30T11:57:31.083Z,1532
2023-01-30T11:58:31.074Z,1564
2023-01-30T11:59:31.063Z,1604
2023-01-30T12:00:31.060Z,2332
2023-01-30T12:01:31.051Z,2372
2023-01-30T12:02:31.074Z,2664
2023-01-30T12:03:31.058Z,2624
2023-01-30T12:04:31.007Z,2200
2023-01-30T12:05:31.013Z,1400
2023-01-30T12:06:30.985Z,1268
2023-01-30T12:07:31.005Z,1328
2023-01-30T12:08:30.979Z,1320
2023-01-30T12:09:30.963Z,1588
2023-01-30T12:10:31.184Z,1876
2023-01-30T12:11:31.049Z,2128
2023-01-30T12:12:30.920Z,2016
2023-01-30T12:13:30.947Z,1620
2023-01-30T12:14:30.910Z,1388
2023-01-30T12:15:30.902Z,1088
2023-01-30T12:16:30.890Z,1220
2023-01-30T12:17:30.923Z,1460
2023-01-30T12:18:30.859Z,1460
2023-01-30T12:19:31.305Z,1660
2023-01-30T12:20:30.860Z,1948
2023-01-30T12:21:30.877Z,2244
2023-01-30T12:22:30.836Z,1792
2023-01-30T12:23:30.821Z,1944
2023-01-30T12:24:30.986Z,1964
2023-01-30T12:25:30.789Z,2244
2023-01-30T12:26:30.779Z,2728
2023-01-30T12:27:30.850Z,3984
2023-01-30T12:28:30.822Z,4196
2023-01-30T12:29:30.884Z,3240
2023-01-30T12:30:31.758Z,2760
2023-01-30T12:31:30.751Z,1612
2023-01-30T12:32:30.731Z,1536
2023-01-30T12:33:30.764Z,2116
2023-01-30T12:34:30.725Z,2596
2023-01-30T12:35:30.706Z,1576
2023-01-30T12:36:30.732Z,1228
2023-01-30T12:37:30.675Z,1252
2023-01-30T12:38:30.657Z,1288
2023-01-30T12:39:30.660Z,1408
2023-01-30T12:40:30.679Z,1916
2023-01-30T12:41:30.619Z,1772
2023-01-30T12:42:30.615Z,1408
2023-01-30T12:43:30.601Z,1104
2023-01-30T12:44:30.595Z,956
2023-01-30T12:45:30.605Z,876
2023-01-30T12:46:30.600Z,744
2023-01-30T12:47:30.554Z,548
2023-01-30T12:48:30.571Z,520
2023-01-30T12:49:30.539Z,916
2023-01-30T12:50:30.560Z,768
2023-01-30T12:51:30.524Z,792
2023-01-30T12:52:30.533Z,1124
2023-01-30T12:53:30.492Z,1340
2023-01-30T12:54:30.531Z,1176
2023-01-30T12:55:30.482Z,792
2023-01-30T12:56:30.465Z,744
2023-01-30T12:57:30.496Z,672
2023-01-30T12:58:30.445Z,1072
2023-01-30T12:59:30.427Z,1908
2023-01-30T13:00:30.557Z,2192
2023-01-30T13:01:30.527Z,2960
2023-01-30T13:02:30.410Z,3500
2023-01-30T13:03:30.404Z,3852
2023-01-30T13:04:30.374Z,3120
2023-01-30T13:05:30.396Z,2428
2023-01-30T13:06:30.385Z,1924
2023-01-30T13:07:30.368Z,1964
2023-01-30T13:08:30.340Z,2160
2023-01-30T13:09:30.354Z,4312
2023-01-30T13:10:30.330Z,4768
2023-01-30T13:11:30.327Z,4784
2023-01-30T13:12:30.290Z,4732
2023-01-30T13:13:30.281Z,4656
2023-01-30T13:14:30.297Z,4532
2023-01-30T13:15:30.269Z,4552
2023-01-30T13:16:30.259Z,4616
2023-01-30T13:17:30.299Z,4568
2023-01-30T13:18:30.228Z,4600
2023-01-30T13:19:30.284Z,4584
2023-01-30T13:20:30.233Z,4592
2023-01-30T13:21:30.226Z,4912
2023-01-30T13:22:30.185Z,6044
2023-01-30T13:23:30.178Z,7328
2023-01-30T13:24:30.172Z,7896
2023-01-30T13:25:30.158Z,8736
2023-01-30T13:26:30.167Z,9264
2023-01-30T13:27:30.138Z,8252
2023-01-30T13:28:30.127Z,7604
2023-01-30T13:29:30.115Z,4432
2023-01-30T13:30:30.109Z,3316
2023-01-30T13:31:30.104Z,2920
2023-01-30T13:32:30.081Z,2552
2023-01-30T13:33:30.098Z,1940
2023-01-30T13:34:30.059Z,1500
2023-01-30T13:35:30.043Z,1356
2023-01-30T13:36:30.034Z,1428
2023-01-30T13:37:30.022Z,1032
2023-01-30T13:38:30.031Z,980
2023-01-30T13:39:30.032Z,864
2023-01-30T13:40:29.987Z,1044
2023-01-30T13:41:29.981Z,1004
2023-01-30T13:42:29.970Z,960
2023-01-30T13:43:29.974Z,1132
2023-01-30T13:44:29.953Z,1172
2023-01-30T13:45:29.943Z,1360
2023-01-30T13:46:29.930Z,1100
2023-01-30T13:47:29.921Z,1352
2023-01-30T13:48:29.908Z,1604
2023-01-30T13:49:29.897Z,1640
2023-01-30T13:50:29.886Z,1852